Saint Bethlehem, Tennessee
Current Conditions -  °F | °C
As of 6:59 AM on Thursday 27 Nov 2014 (Local Time) from KCKV Reporting Station
Overcast Overcast  
Wind Chill: 26°   Ceiling: 1600
Heat Index: 35°   Visibility: 10mi
Dew Point: 31°   Wind: 14mph
Humidity: 85%   Direction: 340°NNW
Pressure: 30.34"   Gusts: NA
Location:  36.57°N, 87.3°W
Report Text: KCKV 271259Z AUTO 34012KT 10SM SCT010 BKN016 OVC039 02/M01 A3034 RMK AO2 T00171006
Loading
Personal Weather Stations






























Interactive Weather Map New forecast layout! Learn more

10-Day Weather Forecast

Advertisements
Track Severe Weather on mobile